Time;durP1;ratioP1;P1;durP2;ratioP2;P2;SDS_P1;SDS_P2;PMS_P1;PMS_P2;Temp;Humidity;BMP_temperature;BMP_pressure;BME280_temperature;BME280_humidity;BME280_pressure;Samples;Min_cycle;Max_cycle;Signal;HPM_P1;HPM_P2
2022/04/30 00:00:29;;;;;;;10.20;4.38;;;6.50;99.90;;;;;;4980168;28;20042;-90
2022/04/30 00:02:57;;;;;;;11.77;3.65;;;6.50;99.90;;;;;;4981715;28;20085;-90
2022/04/30 00:05:24;;;;;;;11.20;4.50;;;6.40;99.90;;;;;;4997928;28;20034;-90
2022/04/30 00:07:50;;;;;;;12.30;4.05;;;6.40;99.90;;;;;;4981759;28;20053;-91
2022/04/30 00:10:16;;;;;;;11.55;4.43;;;6.40;99.90;;;;;;4998132;28;20407;-90
2022/04/30 00:12:41;;;;;;;12.13;4.85;;;6.40;99.90;;;;;;4998117;28;20546;-90
2022/04/30 00:15:08;;;;;;;10.18;4.85;;;6.40;99.90;;;;;;4997990;28;20042;-91
2022/04/30 00:17:33;;;;;;;11.18;4.65;;;6.40;99.90;;;;;;4982109;28;20404;-90
2022/04/30 00:20:00;;;;;;;8.98;4.53;;;6.30;99.90;;;;;;4981219;28;20034;-90
2022/04/30 00:22:25;;;;;;;12.93;5.22;;;6.30;99.90;;;;;;4981804;28;20507;-90
2022/04/30 00:24:51;;;;;;;11.52;5.07;;;6.30;99.90;;;;;;4997830;28;20052;-91
2022/04/30 00:27:17;;;;;;;10.90;5.03;;;6.30;99.90;;;;;;4981536;28;20042;-90
2022/04/30 00:29:42;;;;;;;16.65;5.60;;;6.30;99.90;;;;;;4998188;28;20054;-90
2022/04/30 00:32:08;;;;;;;13.20;5.40;;;6.30;99.90;;;;;;4981431;28;20499;-90
2022/04/30 00:34:33;;;;;;;12.05;5.50;;;6.30;99.90;;;;;;4997818;28;20518;-90
2022/04/30 00:37:02;;;;;;;11.23;4.75;;;6.30;99.90;;;;;;4981511;28;20479;-90
2022/04/30 00:39:32;;;;;;;12.93;4.80;;;6.30;99.90;;;;;;4998268;28;20061;-91
2022/04/30 00:41:58;;;;;;;11.75;4.45;;;6.20;99.90;;;;;;4997754;28;20042;-91
2022/04/30 00:44:24;;;;;;;13.90;5.35;;;6.20;99.90;;;;;;4997804;28;20085;-91
2022/04/30 00:46:50;;;;;;;14.35;5.60;;;6.20;99.90;;;;;;4997917;28;20038;-90
2022/04/30 00:49:16;;;;;;;10.95;5.18;;;6.20;99.90;;;;;;4997618;28;20128;-90
2022/04/30 00:51:43;;;;;;;13.02;6.47;;;6.20;99.90;;;;;;4997787;28;20058;-90
2022/04/30 00:54:12;;;;;;;12.25;6.05;;;6.20;99.90;;;;;;4997544;28;20038;-91
2022/04/30 00:56:46;;;;;;;16.13;7.32;;;6.20;99.90;;;;;;4997797;28;20503;-90
2022/04/30 00:59:19;;;;;;;11.40;5.50;;;6.20;99.90;;;;;;4997744;28;20138;-91
2022/04/30 01:01:46;;;;;;;13.63;5.70;;;6.20;99.90;;;;;;4981196;28;20038;-90
2022/04/30 01:04:16;;;;;;;12.48;5.68;;;6.20;99.90;;;;;;4981295;28;20100;-90
2022/04/30 01:06:55;;;;;;;12.23;5.50;;;6.20;99.90;;;;;;4997725;28;20537;-90
2022/04/30 01:09:28;;;;;;;12.98;5.45;;;6.20;99.90;;;;;;4997466;28;20042;-90
2022/04/30 01:11:58;;;;;;;;;;;6.10;99.90;;;;;;4994301;28;20081;-90
2022/04/30 01:14:31;;;;;;;15.05;6.13;;;6.10;99.90;;;;;;4994490;28;19922;-90
2022/04/30 01:16:59;;;;;;;12.43;5.95;;;6.10;99.90;;;;;;4978642;28;20049;-90
2022/04/30 01:19:28;;;;;;;14.05;5.88;;;6.10;99.90;;;;;;4994391;28;20057;-91
2022/04/30 01:21:59;;;;;;;14.48;6.68;;;6.00;99.90;;;;;;4977448;28;20125;-91
2022/04/30 01:24:27;;;;;;;16.48;6.65;;;6.10;99.90;;;;;;4978375;28;20372;-91
2022/04/30 01:26:55;;;;;;;14.60;7.30;;;6.10;99.90;;;;;;4994249;28;20043;-90
2022/04/30 01:29:24;;;;;;;16.85;6.78;;;6.10;99.90;;;;;;4992763;28;20038;-90
2022/04/30 01:37:23;;;;;;;15.95;6.00;;;6.00;99.90;;;;;;4994564;28;20050;-91
2022/04/30 01:39:52;;;;;;;14.93;6.22;;;5.90;99.90;;;;;;4994115;28;20595;-90
2022/04/30 01:42:18;;;;;;;14.57;7.32;;;5.90;99.90;;;;;;4993777;28;20042;-90
2022/04/30 01:44:46;;;;;;;13.82;6.25;;;5.90;99.90;;;;;;4993585;28;20042;-90
2022/04/30 01:47:14;;;;;;;11.00;5.75;;;5.90;99.90;;;;;;4993766;28;20042;-91
2022/04/30 01:49:40;;;;;;;11.93;6.22;;;5.90;99.90;;;;;;5005534;28;20089;-91
2022/04/30 01:52:07;;;;;;;11.40;5.90;;;5.80;99.90;;;;;;4995417;28;20050;-89
2022/04/30 01:54:33;;;;;;;13.13;6.63;;;5.80;99.90;;;;;;5009762;28;20042;-90
2022/04/30 01:56:58;;;;;;;13.98;6.20;;;5.80;99.90;;;;;;5010570;28;20014;-90
2022/04/30 01:59:24;;;;;;;13.63;6.45;;;5.80;99.90;;;;;;4996574;28;20121;-90
2022/04/30 02:01:51;;;;;;;11.98;6.30;;;5.80;99.90;;;;;;4994201;28;20133;-90
2022/04/30 02:04:17;;;;;;;13.05;6.15;;;5.70;99.90;;;;;;4994443;28;20057;-91
2022/04/30 02:06:44;;;;;;;12.50;6.07;;;5.70;99.90;;;;;;4994172;28;20074;-89
2022/04/30 02:09:10;;;;;;;11.70;5.85;;;5.70;99.90;;;;;;4993356;28;20049;-88
2022/04/30 02:11:36;;;;;;;13.13;6.00;;;5.70;99.90;;;;;;4993064;28;20026;-89
2022/04/30 02:14:03;;;;;;;15.80;6.30;;;5.60;99.90;;;;;;4993407;28;20180;-89
2022/04/30 02:16:31;;;;;;;11.68;5.50;;;5.60;99.90;;;;;;4993404;28;20061;-89
2022/04/30 02:18:59;;;;;;;10.18;4.72;;;5.60;99.90;;;;;;4993370;28;20504;-88
2022/04/30 02:21:29;;;;;;;15.73;6.50;;;5.60;99.90;;;;;;4992771;28;20535;-89
2022/04/30 02:23:58;;;;;;;12.40;6.00;;;5.50;99.90;;;;;;4992719;28;20038;-90
2022/04/30 02:26:27;;;;;;;16.08;6.57;;;5.50;99.90;;;;;;4977257;28;20058;-88
2022/04/30 02:28:57;;;;;;;12.30;5.93;;;5.50;99.90;;;;;;4976875;28;20395;-88
2022/04/30 02:31:23;;;;;;;11.65;5.45;;;5.50;99.90;;;;;;4976326;28;20045;-89
2022/04/30 02:33:49;;;;;;;12.50;5.30;;;5.40;99.90;;;;;;4976579;28;20034;-88
2022/04/30 02:36:15;;;;;;;10.60;5.10;;;5.40;99.90;;;;;;4992696;28;20038;-88
2022/04/30 02:38:41;;;;;;;10.82;5.63;;;5.40;99.90;;;;;;4992762;28;20039;-88
2022/04/30 02:41:07;;;;;;;12.93;5.90;;;5.40;99.90;;;;;;4992503;28;20074;-89
2022/04/30 02:43:33;;;;;;;14.60;5.60;;;5.40;99.90;;;;;;4992797;28;20038;-89
2022/04/30 02:45:59;;;;;;;11.63;6.07;;;5.30;99.90;;;;;;4992787;28;20503;-88
2022/04/30 02:48:24;;;;;;;12.35;5.68;;;5.30;99.90;;;;;;4976294;28;20046;-89
2022/04/30 02:50:53;;;;;;;14.25;6.43;;;5.30;99.90;;;;;;4976280;28;20132;-88
2022/04/30 02:53:19;;;;;;;13.68;5.68;;;5.30;99.90;;;;;;4992242;28;20047;-89
2022/04/30 02:55:44;;;;;;;10.32;4.95;;;5.30;99.90;;;;;;4976685;28;20094;-89
2022/04/30 03:00:54;;;;;;;8.57;4.35;;;5.20;99.90;;;;;;4992523;28;20047;-89
2022/04/30 03:03:20;;;;;;;16.95;4.20;;;5.20;99.90;;;;;;4992080;28;20499;-89
2022/04/30 03:05:52;;;;;;;13.48;4.13;;;5.20;99.90;;;;;;4976207;28;20526;-89
2022/04/30 03:08:21;;;;;;;8.38;3.28;;;5.20;99.90;;;;;;4992587;28;20061;-89
2022/04/30 03:10:54;;;;;;;7.28;3.03;;;5.20;99.90;;;;;;4991962;28;20038;-89
2022/04/30 03:13:20;;;;;;;10.50;3.33;;;5.20;99.90;;;;;;4975713;28;20050;-89
2022/04/30 03:15:50;;;;;;;10.43;5.05;;;5.20;99.90;;;;;;4992474;28;20038;-89
2022/04/30 03:23:48;;;;;;;10.35;3.85;;;5.20;99.90;;;;;;4992177;28;20050;-89
2022/04/30 03:26:15;;;;;;;7.20;2.35;;;5.10;99.90;;;;;;4992235;28;20038;-89
2022/04/30 03:28:42;;;;;;;6.32;2.53;;;5.10;99.90;;;;;;4975774;28;20166;-89
2022/04/30 03:31:10;;;;;;;12.70;5.18;;;5.10;99.90;;;;;;4991612;28;20057;-89
2022/04/30 03:33:36;;;;;;;12.70;5.35;;;5.10;99.90;;;;;;4991539;28;20096;-89
2022/04/30 03:36:02;;;;;;;10.80;5.60;;;5.10;99.90;;;;;;4991619;28;20121;-90
2022/04/30 03:38:28;;;;;;;11.27;4.28;;;5.10;99.90;;;;;;4975686;28;20169;-89
2022/04/30 03:40:54;;;;;;;12.13;5.18;;;5.10;99.90;;;;;;4991555;28;20039;-90
2022/04/30 03:43:19;;;;;;;10.60;4.97;;;5.20;99.90;;;;;;4991235;28;20550;-90
2022/04/30 03:45:46;;;;;;;11.07;5.45;;;5.20;99.90;;;;;;4975641;28;20038;-90
2022/04/30 03:48:15;;;;;;;11.50;6.15;;;5.20;99.90;;;;;;4975344;28;20049;-90
2022/04/30 03:50:42;;;;;;;11.63;5.07;;;5.20;99.90;;;;;;4991309;28;20042;-90
2022/04/30 03:53:07;;;;;;;11.23;5.25;;;5.20;99.90;;;;;;4991560;28;20097;-90
2022/04/30 03:55:33;;;;;;;10.80;5.47;;;5.20;99.90;;;;;;4974899;28;20034;-90
2022/04/30 03:57:59;;;;;;;12.90;6.13;;;5.20;99.90;;;;;;4991494;28;20415;-90
2022/04/30 04:00:24;;;;;;;14.15;5.65;;;5.20;99.90;;;;;;4991456;28;20034;-89
2022/04/30 04:02:51;;;;;;;11.10;5.50;;;5.20;99.90;;;;;;4975353;28;20563;-89
2022/04/30 04:05:17;;;;;;;12.65;5.50;;;5.20;99.90;;;;;;4991655;28;20089;-89
2022/04/30 04:07:43;;;;;;;11.00;5.63;;;5.20;99.90;;;;;;4991328;28;20073;-90
2022/04/30 04:10:10;;;;;;;11.25;5.82;;;5.20;99.90;;;;;;4974868;28;20611;-90
2022/04/30 04:12:42;;;;;;;10.15;5.13;;;5.20;99.90;;;;;;4991354;28;20096;-90
2022/04/30 04:17:53;;;;;;;10.55;5.03;;;5.20;99.90;;;;;;4991548;28;20042;-90
2022/04/30 04:20:22;;;;;;;14.65;5.55;;;5.20;99.90;;;;;;4991277;28;20496;-89
2022/04/30 04:22:47;;;;;;;10.18;5.00;;;5.20;99.90;;;;;;4991158;28;20038;-90
2022/04/30 04:27:58;;;;;;;13.13;5.80;;;5.20;99.90;;;;;;4991311;28;20096;-89
2022/04/30 04:30:26;;;;;;;12.88;5.65;;;5.20;99.90;;;;;;4991297;28;20415;-90
2022/04/30 04:32:52;;;;;;;12.05;5.45;;;5.30;99.90;;;;;;4974931;28;20042;-90
2022/04/30 04:35:18;;;;;;;14.50;7.25;;;5.30;99.90;;;;;;4991472;28;20065;-90
2022/04/30 04:37:44;;;;;;;12.40;6.32;;;5.30;99.90;;;;;;4991379;28;20415;-89
2022/04/30 04:40:11;;;;;;;12.43;7.05;;;5.40;99.90;;;;;;4991239;28;20427;-89
2022/04/30 04:42:38;;;;;;;11.90;6.80;;;5.40;99.90;;;;;;4991337;28;20046;-89
2022/04/30 04:45:04;;;;;;;11.57;6.43;;;5.40;99.90;;;;;;4991685;28;20177;-89
2022/04/30 04:47:30;;;;;;;12.38;5.63;;;5.40;99.90;;;;;;4978694;28;20054;-90
2022/04/30 04:49:56;;;;;;;10.85;5.60;;;5.40;99.90;;;;;;4994672;28;20053;-90
2022/04/30 04:52:21;;;;;;;14.10;6.00;;;5.40;99.90;;;;;;4978671;28;20082;-89
2022/04/30 04:54:47;;;;;;;11.55;6.30;;;5.40;99.90;;;;;;4978726;28;20121;-90
2022/04/30 04:57:13;;;;;;;10.27;5.80;;;5.50;99.90;;;;;;4978169;28;20038;-89
2022/04/30 04:59:39;;;;;;;10.48;5.60;;;5.50;99.90;;;;;;4994597;28;20042;-90
2022/04/30 05:02:05;;;;;;;12.52;5.72;;;5.50;99.90;;;;;;4994419;28;20042;-90
2022/04/30 05:04:32;;;;;;;9.93;4.45;;;5.50;99.90;;;;;;4994908;28;20042;-90
2022/04/30 05:06:59;;;;;;;10.88;5.25;;;5.50;99.90;;;;;;4978486;28;20073;-90
2022/04/30 05:09:25;;;;;;;8.57;3.47;;;5.60;99.90;;;;;;4994552;28;20458;-90
2022/04/30 05:11:52;;;;;;;8.48;3.25;;;5.60;99.90;;;;;;4993959;28;20038;-90
2022/04/30 05:14:17;;;;;;;7.72;3.83;;;5.60;99.90;;;;;;4978130;28;20050;-90
2022/04/30 05:16:43;;;;;;;8.25;3.70;;;5.60;99.90;;;;;;4978249;28;20108;-90
2022/04/30 05:19:09;;;;;;;10.80;4.68;;;5.60;99.90;;;;;;4994377;28;20039;-90
2022/04/30 05:21:34;;;;;;;11.15;4.28;;;5.70;99.90;;;;;;4993885;28;20034;-89
2022/04/30 05:24:00;;;;;;;8.77;4.82;;;5.70;99.90;;;;;;4978146;28;20053;-90
2022/04/30 05:26:25;;;;;;;10.00;4.28;;;5.70;99.90;;;;;;4994104;28;20034;-90
2022/04/30 05:28:51;;;;;;;10.20;4.30;;;5.80;99.90;;;;;;4978218;28;20104;-90
2022/04/30 05:31:17;;;;;;;9.82;4.57;;;5.80;99.90;;;;;;4994088;28;20411;-90
2022/04/30 05:33:43;;;;;;;11.68;5.45;;;5.90;99.90;;;;;;4993837;28;20526;-90
2022/04/30 05:36:08;;;;;;;11.45;6.05;;;5.90;99.90;;;;;;4977952;28;20410;-90
2022/04/30 05:38:34;;;;;;;12.35;6.35;;;6.00;99.90;;;;;;4994087;28;20084;-90
2022/04/30 05:41:01;;;;;;;14.68;6.57;;;6.00;99.90;;;;;;4993694;28;20482;-90
2022/04/30 05:43:26;;;;;;;13.65;6.50;;;6.10;99.90;;;;;;4993420;28;20081;-90
2022/04/30 05:45:52;;;;;;;13.88;7.60;;;6.20;99.90;;;;;;4977586;28;20073;-90
2022/04/30 05:48:18;;;;;;;15.80;7.68;;;6.20;99.90;;;;;;4977522;28;20050;-90
2022/04/30 05:50:43;;;;;;;13.48;6.65;;;6.30;99.90;;;;;;4993500;28;20049;-90
2022/04/30 05:53:09;;;;;;;14.75;6.55;;;6.40;99.90;;;;;;4977522;28;20104;-90
2022/04/30 05:55:34;;;;;;;13.98;6.40;;;6.50;99.90;;;;;;4993642;28;20038;-90
2022/04/30 05:58:00;;;;;;;14.15;6.78;;;6.60;99.90;;;;;;4976591;28;20612;-90
2022/04/30 06:00:25;;;;;;;15.80;6.55;;;6.70;99.90;;;;;;4977085;28;20105;-90
2022/04/30 06:02:51;;;;;;;11.88;6.55;;;6.80;99.90;;;;;;4993361;28;20081;-90
2022/04/30 06:05:17;;;;;;;11.73;6.20;;;6.80;99.90;;;;;;4993777;28;20049;-90
2022/04/30 06:07:42;;;;;;;13.13;6.68;;;6.90;99.90;;;;;;4993720;28;20559;-90
2022/04/30 06:10:08;;;;;;;12.25;6.65;;;7.00;99.90;;;;;;4992968;28;20526;-90
2022/04/30 06:12:34;;;;;;;13.93;6.63;;;7.10;99.90;;;;;;4993440;28;20086;-90
2022/04/30 06:15:01;;;;;;;13.18;7.40;;;7.20;99.90;;;;;;4993164;28;20073;-90
2022/04/30 06:17:26;;;;;;;12.80;6.38;;;7.20;99.90;;;;;;4993175;28;20483;-89
2022/04/30 06:19:52;;;;;;;14.52;6.78;;;7.40;99.90;;;;;;4976889;28;20091;-90
2022/04/30 06:22:18;;;;;;;13.25;7.68;;;7.50;99.90;;;;;;4992912;28;20423;-90
2022/04/30 06:24:43;;;;;;;14.75;7.00;;;7.50;99.90;;;;;;4992843;28;20169;-90
2022/04/30 06:27:09;;;;;;;15.23;6.88;;;7.70;99.90;;;;;;4976850;28;20049;-89
2022/04/30 06:29:35;;;;;;;13.80;7.55;;;7.80;99.90;;;;;;4992963;28;20034;-90
2022/04/30 06:32:01;;;;;;;17.65;8.15;;;7.90;99.90;;;;;;4992734;28;20038;-89
2022/04/30 06:34:26;;;;;;;17.50;7.20;;;8.00;99.90;;;;;;4992945;28;20046;-90
2022/04/30 06:36:52;;;;;;;12.07;7.00;;;8.20;99.90;;;;;;4976644;28;20455;-90
2022/04/30 06:39:18;;;;;;;12.55;7.28;;;8.30;99.90;;;;;;4992894;28;20042;-90
2022/04/30 06:41:43;;;;;;;13.73;7.25;;;8.40;99.90;;;;;;4992632;28;20121;-90
2022/04/30 06:44:09;;;;;;;13.00;6.63;;;8.60;99.90;;;;;;4992850;28;20045;-90
2022/04/30 06:46:34;;;;;;;13.95;7.40;;;8.70;99.90;;;;;;4992630;28;20038;-90
2022/04/30 06:49:00;;;;;;;13.68;6.93;;;8.80;99.90;;;;;;4974947;28;20054;-90
2022/04/30 06:51:25;;;;;;;12.30;6.78;;;8.90;99.90;;;;;;4989448;28;20495;-90
2022/04/30 06:59:19;;;;;;;12.75;6.15;;;9.20;99.90;;;;;;4989221;28;20050;-90
2022/04/30 07:01:49;;;;;;;13.63;6.95;;;9.40;99.90;;;;;;4989308;28;20042;-90
2022/04/30 07:04:17;;;;;;;12.93;6.55;;;9.50;99.90;;;;;;4973501;28;20515;-90
2022/04/30 07:06:45;;;;;;;12.35;6.35;;;9.70;99.90;;;;;;4990684;28;20450;-90
2022/04/30 07:09:11;;;;;;;11.30;6.47;;;9.80;99.90;;;;;;4991534;28;20447;-90
2022/04/30 07:11:36;;;;;;;13.40;6.72;;;9.90;99.90;;;;;;4992083;28;20511;-91
2022/04/30 07:14:02;;;;;;;10.23;6.70;;;10.00;99.90;;;;;;4992461;28;20073;-90
2022/04/30 07:16:28;;;;;;;11.38;6.55;;;10.00;99.90;;;;;;4975836;28;20530;-90
2022/04/30 07:18:53;;;;;;;10.75;7.05;;;10.10;99.90;;;;;;4992362;28;20096;-91
2022/04/30 07:21:19;;;;;;;12.77;6.88;;;10.20;99.90;;;;;;4991659;28;20523;-91
2022/04/30 07:23:45;;;;;;;13.02;6.80;;;10.30;99.90;;;;;;4975765;28;20046;-91
2022/04/30 07:26:10;;;;;;;15.43;6.88;;;10.40;99.90;;;;;;4992278;28;20057;-90
2022/04/30 07:28:36;;;;;;;12.15;6.68;;;10.50;99.90;;;;;;4992172;28;20035;-90
2022/04/30 07:31:05;;;;;;;12.82;6.45;;;10.60;99.90;;;;;;4975668;28;20061;-90
2022/04/30 07:33:31;;;;;;;14.20;6.97;;;10.60;99.90;;;;;;5001364;28;20026;-90
2022/04/30 07:35:58;;;;;;;11.00;6.43;;;10.60;99.90;;;;;;5005870;28;20077;-90
2022/04/30 07:38:23;;;;;;;11.60;6.85;;;10.70;99.90;;;;;;4991820;28;20022;-90
2022/04/30 07:40:49;;;;;;;13.20;6.15;;;10.80;99.90;;;;;;4986359;28;20054;-91
2022/04/30 07:43:15;;;;;;;13.40;5.85;;;10.90;99.90;;;;;;4980688;28;20129;-91
2022/04/30 07:45:41;;;;;;;11.65;5.35;;;11.00;99.90;;;;;;4995358;28;20430;-91
2022/04/30 07:48:07;;;;;;;12.77;7.22;;;11.10;99.90;;;;;;4992679;28;20133;-91
2022/04/30 07:50:36;;;;;;;11.27;6.70;;;11.10;99.90;;;;;;4975978;28;20038;-91
2022/04/30 07:53:06;;;;;;;12.07;5.78;;;11.10;99.90;;;;;;4975686;28;20038;-91
2022/04/30 07:55:32;;;;;;;11.07;5.43;;;11.20;99.90;;;;;;4991600;28;20043;-90
2022/04/30 07:57:58;;;;;;;14.63;6.93;;;11.30;99.90;;;;;;4991925;28;20053;-91
2022/04/30 08:00:24;;;;;;;10.88;5.70;;;11.30;99.90;;;;;;4991387;28;20031;-91
2022/04/30 08:02:50;;;;;;;9.13;4.78;;;11.40;99.90;;;;;;4991624;28;20060;-91
2022/04/30 08:05:16;;;;;;;11.77;4.97;;;11.40;99.90;;;;;;4991280;28;20050;-90
2022/04/30 08:07:42;;;;;;;12.02;4.82;;;11.50;99.90;;;;;;4988635;28;20495;-91
2022/04/30 08:10:08;;;;;;;12.07;5.38;;;11.50;99.90;;;;;;4988643;28;20359;-91
2022/04/30 08:12:33;;;;;;;9.68;4.93;;;11.60;99.90;;;;;;4988351;28;20049;-91
2022/04/30 08:14:59;;;;;;;10.93;4.82;;;11.60;99.90;;;;;;4988620;28;20039;-91
2022/04/30 08:17:27;;;;;;;10.30;5.30;;;11.60;99.90;;;;;;4972095;28;20050;-91
2022/04/30 08:19:53;;;;;;;13.00;6.50;;;11.70;99.90;;;;;;4972174;28;20515;-91
2022/04/30 08:22:19;;;;;;;11.57;5.70;;;11.70;99.90;;;;;;4992008;28;20074;-90
2022/04/30 08:24:45;;;;;;;11.27;5.18;;;11.80;99.90;;;;;;4976438;28;20582;-91
2022/04/30 08:27:11;;;;;;;14.50;5.60;;;11.80;99.90;;;;;;4991866;28;20050;-91
2022/04/30 08:29:37;;;;;;;10.88;6.03;;;11.90;99.90;;;;;;4991975;28;20045;-90
2022/04/30 08:32:03;;;;;;;13.50;5.93;;;11.90;99.90;;;;;;4991904;28;20046;-91
2022/04/30 08:34:29;;;;;;;9.70;5.68;;;12.00;99.90;;;;;;4991841;28;20050;-91
2022/04/30 08:36:55;;;;;;;11.00;5.80;;;12.10;99.90;;;;;;4991614;28;20415;-91
2022/04/30 08:39:21;;;;;;;12.82;5.90;;;12.10;99.90;;;;;;4992018;28;20080;-91
2022/04/30 08:41:47;;;;;;;11.02;5.53;;;12.20;99.90;;;;;;4991529;28;20085;-90
2022/04/30 08:44:17;;;;;;;13.48;6.03;;;12.20;99.90;;;;;;4975684;28;20129;-90
2022/04/30 08:46:44;;;;;;;10.63;5.53;;;12.30;99.90;;;;;;4978127;28;20450;-90
2022/04/30 08:49:10;;;;;;;9.05;5.10;;;12.40;99.90;;;;;;4994638;28;20133;-90
2022/04/30 08:51:36;;;;;;;9.38;5.28;;;12.50;99.90;;;;;;4978074;28;20607;-91
2022/04/30 08:54:02;;;;;;;10.85;5.80;;;12.60;99.90;;;;;;4978173;28;20081;-91
2022/04/30 08:56:28;;;;;;;12.80;6.38;;;12.70;99.90;;;;;;4999930;28;20037;-91
2022/04/30 08:59:01;;;;;;;10.57;4.95;;;12.80;99.90;;;;;;4992666;28;20034;-91
2022/04/30 09:01:27;;;;;;;12.00;5.93;;;13.00;99.90;;;;;;4984487;28;20122;-91
2022/04/30 09:03:55;;;;;;;12.25;5.05;;;13.10;99.90;;;;;;5003786;28;20121;-91
2022/04/30 09:06:21;;;;;;;11.07;5.40;;;13.30;99.90;;;;;;4988461;28;20535;-90
2022/04/30 09:08:51;;;;;;;10.82;4.70;;;13.40;99.90;;;;;;5002759;28;20038;-91
2022/04/30 09:11:17;;;;;;;13.35;4.82;;;13.60;99.90;;;;;;5002669;28;20072;-91
2022/04/30 09:13:44;;;;;;;10.65;4.10;;;13.70;99.90;;;;;;5013566;28;20030;-91
2022/04/30 09:16:21;;;;;;;8.77;4.20;;;13.80;99.90;;;;;;5013801;28;20053;-91
2022/04/30 09:18:50;;;;;;;8.98;4.53;;;13.80;99.60;;;;;;5013584;28;20403;-91
2022/04/30 09:21:17;;;;;;;10.75;4.50;;;13.80;98.50;;;;;;5013581;28;20038;-91
2022/04/30 09:23:44;;;;;;;12.85;5.90;;;13.80;98.70;;;;;;4997416;28;20049;-91
2022/04/30 09:26:10;;;;;;;11.55;6.15;;;13.80;98.40;;;;;;5013260;28;20046;-91
2022/04/30 09:28:38;;;;;;;8.40;4.25;;;13.70;97.70;;;;;;5013554;28;20124;-91
2022/04/30 09:31:16;;;;;;;10.40;5.10;;;13.70;97.70;;;;;;5013091;28;20042;-91
2022/04/30 09:33:50;;;;;;;8.75;4.18;;;13.70;97.50;;;;;;4995992;28;20498;-92
2022/04/30 09:39:14;;;;;;;8.73;3.90;;;13.70;96.70;;;;;;5009510;28;20133;-90
2022/04/30 09:41:39;;;;;;;10.10;4.15;;;13.80;96.40;;;;;;5009939;28;20124;-91
2022/04/30 09:44:07;;;;;;;10.73;4.28;;;13.70;96.90;;;;;;5010192;28;20140;-90
2022/04/30 09:46:37;;;;;;;10.88;4.25;;;13.80;96.90;;;;;;5010246;28;20053;-90
2022/04/30 09:54:39;;;;;;;10.27;4.90;;;14.10;96.90;;;;;;5012451;28;20412;-90
2022/04/30 09:57:07;;;;;;;9.18;4.30;;;14.20;96.70;;;;;;5012185;28;20057;-90
2022/04/30 09:59:35;;;;;;;9.95;5.13;;;14.50;97.40;;;;;;4996617;28;20064;-91
2022/04/30 10:02:04;;;;;;;8.18;4.50;;;14.70;96.20;;;;;;5012196;28;20381;-90
2022/04/30 10:04:31;;;;;;;7.88;4.00;;;14.90;95.40;;;;;;5012696;28;20562;-90
2022/04/30 10:07:00;;;;;;;8.40;4.35;;;15.00;95.30;;;;;;5012451;28;20046;-91
2022/04/30 10:09:47;;;;;;;10.77;5.43;;;15.20;94.10;;;;;;5012835;28;20125;-91
2022/04/30 10:12:31;;;;;;;9.27;4.68;;;15.30;93.10;;;;;;5012047;28;20173;-91
2022/04/30 10:15:11;;;;;;;10.45;5.03;;;15.40;93.80;;;;;;5012372;28;20459;-91
2022/04/30 10:17:42;;;;;;;9.63;4.28;;;15.50;92.30;;;;;;4996092;28;20073;-90
2022/04/30 10:20:18;;;;;;;8.07;4.30;;;15.40;91.00;;;;;;5012055;28;20496;-91
2022/04/30 10:22:58;;;;;;;8.57;4.90;;;15.40;91.30;;;;;;4995737;28;20076;-89
2022/04/30 10:25:41;;;;;;;10.52;5.13;;;15.50;91.20;;;;;;4996201;28;20030;-88
2022/04/30 10:28:22;;;;;;;12.00;4.38;;;15.50;90.10;;;;;;5013081;28;20053;-89
2022/04/30 10:31:05;;;;;;;9.38;4.40;;;15.50;89.70;;;;;;4995617;28;20088;-90
2022/04/30 10:33:31;;;;;;;11.80;4.70;;;15.50;88.20;;;;;;5012504;28;20077;-89
2022/04/30 10:36:04;;;;;;;9.27;4.38;;;15.50;89.50;;;;;;5012170;28;20081;-90
2022/04/30 10:38:30;;;;;;;11.82;4.43;;;15.60;88.40;;;;;;5012427;28;20077;-91
2022/04/30 10:41:00;;;;;;;68.05;38.10;;;15.60;86.40;;;;;;4995367;28;20077;-90
2022/04/30 10:43:32;;;;;;;26.27;14.00;;;15.60;83.80;;;;;;5011666;28;20052;-90
2022/04/30 10:46:18;;;;;;;18.17;10.13;;;15.60;84.90;;;;;;5012251;28;20080;-91
2022/04/30 10:48:43;;;;;;;9.70;4.63;;;15.70;84.90;;;;;;5011484;28;20570;-91
2022/04/30 10:51:11;;;;;;;9.43;4.07;;;15.70;82.20;;;;;;5011950;28;20133;-92
2022/04/30 10:53:43;;;;;;;9.80;4.25;;;15.60;81.00;;;;;;5011994;28;20122;-91
2022/04/30 10:56:09;;;;;;;8.40;3.80;;;15.70;80.30;;;;;;4995485;28;20042;-91
2022/04/30 10:58:36;;;;;;;8.55;3.80;;;15.60;80.20;;;;;;4989664;28;20037;-91
2022/04/30 11:01:13;;;;;;;7.97;3.67;;;15.60;78.80;;;;;;5011418;28;20125;-91
2022/04/30 11:03:44;;;;;;;8.82;3.35;;;15.50;75.40;;;;;;5011407;28;20517;-90
2022/04/30 11:06:11;;;;;;;8.13;3.00;;;15.40;76.70;;;;;;5011732;28;20168;-91
2022/04/30 11:08:37;;;;;;;10.00;3.30;;;15.30;75.80;;;;;;5011667;28;20500;-91
2022/04/30 11:11:02;;;;;;;9.98;3.88;;;15.20;77.70;;;;;;5011125;28;20046;-91
2022/04/30 11:13:28;;;;;;;7.38;3.30;;;15.20;81.00;;;;;;5011528;28;20427;-90
2022/04/30 11:15:58;;;;;;;11.20;4.00;;;15.30;81.70;;;;;;4995083;28;20488;-90
2022/04/30 11:18:24;;;;;;;7.85;3.38;;;15.60;82.30;;;;;;4994989;28;20042;-91
2022/04/30 11:20:58;;;;;;;12.50;4.60;;;15.80;74.10;;;;;;4994768;28;20088;-91
2022/04/30 11:23:24;;;;;;;9.43;3.63;;;16.10;76.40;;;;;;4995004;28;20046;-91
2022/04/30 11:25:50;;;;;;;7.55;2.92;;;16.40;75.20;;;;;;5011677;28;20046;-91
2022/04/30 11:28:15;;;;;;;9.13;3.20;;;16.40;70.50;;;;;;5011332;28;20089;-91
2022/04/30 11:30:43;;;;;;;7.22;3.10;;;16.10;69.40;;;;;;5010784;28;20431;-91
2022/04/30 11:33:09;;;;;;;8.43;3.40;;;15.80;69.70;;;;;;4994856;28;20042;-91
2022/04/30 11:35:35;;;;;;;7.20;2.90;;;15.70;72.00;;;;;;5011133;28;20146;-91
2022/04/30 11:38:01;;;;;;;7.68;3.20;;;15.70;72.10;;;;;;4994851;28;20121;-91
2022/04/30 11:40:27;;;;;;;10.63;3.30;;;15.70;72.90;;;;;;5010808;28;20056;-91
2022/04/30 11:42:56;;;;;;;7.70;3.05;;;15.80;71.50;;;;;;5010959;28;20046;-91
2022/04/30 11:45:29;;;;;;;7.25;3.10;;;15.70;70.50;;;;;;5010852;28;20077;-90
2022/04/30 11:47:57;;;;;;;8.02;3.13;;;15.60;69.80;;;;;;5010924;28;20100;-90
2022/04/30 11:50:24;;;;;;;7.57;3.20;;;15.40;70.00;;;;;;5010436;28;20077;-91
2022/04/30 11:52:50;;;;;;;8.02;3.30;;;15.20;71.30;;;;;;4994776;28;20092;-91
2022/04/30 11:55:17;;;;;;;8.35;3.20;;;15.20;71.80;;;;;;4993334;28;20034;-90
2022/04/30 11:57:44;;;;;;;8.00;3.53;;;15.20;72.30;;;;;;4994414;28;20052;-90
2022/04/30 12:00:14;;;;;;;8.43;3.65;;;15.20;73.20;;;;;;4993897;28;20509;-91
2022/04/30 12:02:41;;;;;;;7.50;3.42;;;15.20;74.30;;;;;;4994289;28;20403;-90
2022/04/30 12:05:07;;;;;;;8.48;3.83;;;15.20;74.60;;;;;;5010573;28;20132;-91
2022/04/30 12:07:39;;;;;;;8.13;3.85;;;15.20;74.40;;;;;;5010734;28;20043;-91
2022/04/30 12:10:26;;;;;;;9.20;3.88;;;15.20;74.40;;;;;;5010187;28;20121;-91
2022/04/30 12:12:52;;;;;;;10.75;4.05;;;15.20;74.00;;;;;;5010683;28;20088;-91
2022/04/30 12:15:19;;;;;;;9.07;3.78;;;15.10;75.00;;;;;;4994049;28;20038;-91
2022/04/30 12:17:45;;;;;;;11.35;3.90;;;15.10;75.30;;;;;;5010532;28;20518;-90
2022/04/30 12:25:47;;;;;;;9.60;3.80;;;14.90;75.20;;;;;;5010704;28;20041;-91
2022/04/30 12:28:13;;;;;;;7.85;3.78;;;14.80;76.60;;;;;;5010625;28;20507;-90
2022/04/30 12:30:54;;;;;;;8.57;3.85;;;14.80;76.80;;;;;;4993672;28;20046;-90
2022/04/30 12:33:21;;;;;;;8.80;3.67;;;14.80;77.50;;;;;;4994063;28;20372;-90
2022/04/30 12:35:55;;;;;;;8.82;3.97;;;14.70;78.30;;;;;;5010575;28;20049;-90
2022/04/30 12:38:21;;;;;;;9.65;3.85;;;14.70;78.20;;;;;;5010652;28;20038;-90
2022/04/30 12:40:47;;;;;;;9.00;4.13;;;14.60;78.80;;;;;;4993894;28;20476;-91
2022/04/30 12:43:16;;;;;;;9.13;3.92;;;14.60;79.00;;;;;;5010085;28;20034;-91
2022/04/30 12:45:46;;;;;;;8.98;4.32;;;14.60;80.10;;;;;;5010259;28;20037;-91
2022/04/30 12:48:12;;;;;;;9.38;3.97;;;14.60;78.90;;;;;;4993985;28;20046;-90
2022/04/30 12:50:38;;;;;;;10.02;4.25;;;14.50;79.20;;;;;;4994131;28;20034;-90
2022/04/30 12:53:09;;;;;;;11.95;4.82;;;14.50;79.60;;;;;;5010329;28;20063;-91
2022/04/30 12:55:38;;;;;;;14.77;4.47;;;14.40;79.90;;;;;;5010519;28;20049;-90
2022/04/30 12:58:04;;;;;;;9.07;4.15;;;14.40;81.00;;;;;;5010226;28;20050;-91
2022/04/30 13:00:29;;;;;;;9.38;4.68;;;14.40;82.20;;;;;;4993225;28;20045;-90
2022/04/30 13:02:55;;;;;;;11.60;4.13;;;14.40;82.80;;;;;;4994032;28;20050;-91
2022/04/30 13:05:21;;;;;;;10.80;4.30;;;14.30;83.40;;;;;;5010278;28;20054;-90
2022/04/30 13:07:46;;;;;;;9.35;4.20;;;14.30;84.80;;;;;;4996797;28;20052;-91
2022/04/30 13:15:41;;;;;;;9.85;4.65;;;14.30;85.00;;;;;;5013684;28;20050;-91
2022/04/30 13:18:08;;;;;;;10.63;5.25;;;14.30;86.40;;;;;;5013840;28;20050;-90
2022/04/30 13:20:34;;;;;;;9.10;4.25;;;14.30;87.40;;;;;;4997190;28;20506;-90
2022/04/30 13:23:00;;;;;;;9.98;4.75;;;14.30;87.40;;;;;;5002075;28;20504;-91
2022/04/30 13:25:28;;;;;;;9.35;3.97;;;14.20;86.00;;;;;;4985531;28;20117;-90
2022/04/30 13:27:55;;;;;;;12.05;4.38;;;14.20;85.50;;;;;;4993915;28;20500;-90
2022/04/30 13:30:22;;;;;;;10.38;3.97;;;14.20;86.10;;;;;;4977509;28;20132;-89